sensor_id;sensor_type;location;lat;lon;timestamp;P1;durP1;ratioP1;P2;durP2;ratioP2
11135;SDS011;5622;50.840;4.948;2023-05-13T00:01:21;14.83;;;13.33;;
11135;SDS011;5622;50.840;4.948;2023-05-13T00:04:17;18.83;;;13.77;;
11135;SDS011;5622;50.840;4.948;2023-05-13T00:07:04;15.60;;;13.93;;
11135;SDS011;5622;50.840;4.948;2023-05-13T00:10:07;15.87;;;14.23;;
11135;SDS011;5622;50.840;4.948;2023-05-13T00:12:46;19.07;;;15.53;;
11135;SDS011;5622;50.840;4.948;2023-05-13T00:15:15;15.43;;;13.87;;
11135;SDS011;5622;50.840;4.948;2023-05-13T00:17:54;16.90;;;15.07;;
11135;SDS011;5622;50.840;4.948;2023-05-13T00:34:09;16.37;;;14.00;;
11135;SDS011;5622;50.840;4.948;2023-05-13T00:36:58;17.10;;;14.50;;
11135;SDS011;5622;50.840;4.948;2023-05-13T00:39:51;18.83;;;14.90;;
11135;SDS011;5622;50.840;4.948;2023-05-13T00:42:41;18.17;;;14.43;;
11135;SDS011;5622;50.840;4.948;2023-05-13T00:46:06;16.43;;;13.60;;
11135;SDS011;5622;50.840;4.948;2023-05-13T00:49:01;15.70;;;13.70;;
11135;SDS011;5622;50.840;4.948;2023-05-13T00:51:51;18.83;;;14.87;;
11135;SDS011;5622;50.840;4.948;2023-05-13T00:58:02;17.30;;;14.80;;
11135;SDS011;5622;50.840;4.948;2023-05-13T01:04:11;17.97;;;14.00;;
11135;SDS011;5622;50.840;4.948;2023-05-13T01:14:22;15.27;;;13.67;;
11135;SDS011;5622;50.840;4.948;2023-05-13T01:17:39;15.30;;;13.70;;
11135;SDS011;5622;50.840;4.948;2023-05-13T01:20:48;20.57;;;13.90;;
11135;SDS011;5622;50.840;4.948;2023-05-13T01:23:49;16.40;;;14.53;;
11135;SDS011;5622;50.840;4.948;2023-05-13T01:58:16;16.23;;;14.53;;
11135;SDS011;5622;50.840;4.948;2023-05-13T02:42:12;23.87;;;16.87;;
11135;SDS011;5622;50.840;4.948;2023-05-13T02:48:10;18.80;;;16.80;;
11135;SDS011;5622;50.840;4.948;2023-05-13T02:50:59;21.10;;;17.03;;
11135;SDS011;5622;50.840;4.948;2023-05-13T03:17:18;21.00;;;16.87;;
11135;SDS011;5622;50.840;4.948;2023-05-13T03:20:21;20.17;;;16.47;;
11135;SDS011;5622;50.840;4.948;2023-05-13T03:22:59;19.20;;;17.17;;
11135;SDS011;5622;50.840;4.948;2023-05-13T03:26:02;21.77;;;16.67;;
11135;SDS011;5622;50.840;4.948;2023-05-13T03:28:43;19.57;;;16.27;;
11135;SDS011;5622;50.840;4.948;2023-05-13T03:31:58;22.23;;;17.43;;
11135;SDS011;5622;50.840;4.948;2023-05-13T03:41:37;22.83;;;17.43;;
11135;SDS011;5622;50.840;4.948;2023-05-13T03:44:58;17.33;;;15.43;;
11135;SDS011;5622;50.840;4.948;2023-05-13T03:47:38;23.50;;;17.47;;
11135;SDS011;5622;50.840;4.948;2023-05-13T03:50:13;25.13;;;17.27;;
11135;SDS011;5622;50.840;4.948;2023-05-13T03:53:06;26.67;;;18.40;;
11135;SDS011;5622;50.840;4.948;2023-05-13T04:14:32;23.27;;;19.03;;
11135;SDS011;5622;50.840;4.948;2023-05-13T04:17:54;24.07;;;19.10;;
11135;SDS011;5622;50.840;4.948;2023-05-13T04:20:40;24.57;;;18.83;;
11135;SDS011;5622;50.840;4.948;2023-05-13T04:50:35;26.50;;;23.13;;
11135;SDS011;5622;50.840;4.948;2023-05-13T04:53:39;23.00;;;20.43;;
11135;SDS011;5622;50.840;4.948;2023-05-13T04:56:28;24.23;;;20.57;;
11135;SDS011;5622;50.840;4.948;2023-05-13T04:59:08;25.43;;;21.57;;
11135;SDS011;5622;50.840;4.948;2023-05-13T05:01:54;25.10;;;20.37;;
11135;SDS011;5622;50.840;4.948;2023-05-13T05:04:32;26.37;;;20.77;;
11135;SDS011;5622;50.840;4.948;2023-05-13T05:07:24;24.23;;;20.67;;
11135;SDS011;5622;50.840;4.948;2023-05-13T05:10:27;26.67;;;21.23;;
11135;SDS011;5622;50.840;4.948;2023-05-13T05:13:37;22.57;;;19.90;;
11135;SDS011;5622;50.840;4.948;2023-05-13T05:16:27;25.50;;;21.47;;
11135;SDS011;5622;50.840;4.948;2023-05-13T05:19:14;25.40;;;21.23;;
11135;SDS011;5622;50.840;4.948;2023-05-13T05:21:48;22.43;;;19.40;;
11135;SDS011;5622;50.840;4.948;2023-05-13T05:24:23;24.13;;;20.73;;
11135;SDS011;5622;50.840;4.948;2023-05-13T05:26:58;24.60;;;21.87;;
11135;SDS011;5622;50.840;4.948;2023-05-13T05:29:59;26.33;;;21.33;;
11135;SDS011;5622;50.840;4.948;2023-05-13T05:33:10;25.03;;;20.17;;
11135;SDS011;5622;50.840;4.948;2023-05-13T05:35:46;23.30;;;20.60;;
11135;SDS011;5622;50.840;4.948;2023-05-13T05:38:20;22.70;;;19.87;;
11135;SDS011;5622;50.840;4.948;2023-05-13T05:40:58;25.67;;;21.43;;
11135;SDS011;5622;50.840;4.948;2023-05-13T05:43:45;23.63;;;20.53;;
11135;SDS011;5622;50.840;4.948;2023-05-13T05:46:15;25.77;;;21.80;;
11135;SDS011;5622;50.840;4.948;2023-05-13T05:48:55;25.80;;;21.50;;
11135;SDS011;5622;50.840;4.948;2023-05-13T05:51:32;24.97;;;21.13;;
11135;SDS011;5622;50.840;4.948;2023-05-13T05:54:07;24.80;;;21.87;;
11135;SDS011;5622;50.840;4.948;2023-05-13T06:03:32;26.33;;;22.40;;
11135;SDS011;5622;50.840;4.948;2023-05-13T06:06:15;24.87;;;21.93;;
11135;SDS011;5622;50.840;4.948;2023-05-13T06:18:18;27.50;;;23.13;;
11135;SDS011;5622;50.840;4.948;2023-05-13T06:20:48;29.60;;;23.80;;
11135;SDS011;5622;50.840;4.948;2023-05-13T06:23:28;30.77;;;24.40;;
11135;SDS011;5622;50.840;4.948;2023-05-13T06:26:04;26.07;;;22.30;;
11135;SDS011;5622;50.840;4.948;2023-05-13T06:28:50;24.43;;;21.80;;
11135;SDS011;5622;50.840;4.948;2023-05-13T06:34:11;24.93;;;21.43;;
11135;SDS011;5622;50.840;4.948;2023-05-13T06:36:49;22.53;;;20.13;;
11135;SDS011;5622;50.840;4.948;2023-05-13T06:39:46;22.63;;;20.23;;
11135;SDS011;5622;50.840;4.948;2023-05-13T06:42:16;22.50;;;18.70;;
11135;SDS011;5622;50.840;4.948;2023-05-13T06:44:54;21.27;;;18.97;;
11135;SDS011;5622;50.840;4.948;2023-05-13T06:47:40;21.07;;;18.87;;
11135;SDS011;5622;50.840;4.948;2023-05-13T06:50:09;19.73;;;17.73;;
11135;SDS011;5622;50.840;4.948;2023-05-13T06:52:57;26.20;;;19.00;;
11135;SDS011;5622;50.840;4.948;2023-05-13T06:55:43;21.63;;;18.47;;
11135;SDS011;5622;50.840;4.948;2023-05-13T06:58:42;23.30;;;18.77;;
11135;SDS011;5622;50.840;4.948;2023-05-13T07:08:22;20.57;;;18.37;;
11135;SDS011;5622;50.840;4.948;2023-05-13T07:11:31;28.80;;;17.57;;
11135;SDS011;5622;50.840;4.948;2023-05-13T07:31:38;17.87;;;14.97;;
11135;SDS011;5622;50.840;4.948;2023-05-13T07:34:25;15.90;;;14.30;;
11135;SDS011;5622;50.840;4.948;2023-05-13T07:44:36;15.47;;;13.87;;
11135;SDS011;5622;50.840;4.948;2023-05-13T07:47:20;14.70;;;13.20;;
11135;SDS011;5622;50.840;4.948;2023-05-13T07:50:24;14.87;;;12.83;;
11135;SDS011;5622;50.840;4.948;2023-05-13T07:53:32;15.47;;;13.27;;
11135;SDS011;5622;50.840;4.948;2023-05-13T07:56:11;15.83;;;13.30;;
11135;SDS011;5622;50.840;4.948;2023-05-13T07:58:49;14.27;;;12.00;;
11135;SDS011;5622;50.840;4.948;2023-05-13T08:01:22;15.60;;;12.53;;
11135;SDS011;5622;50.840;4.948;2023-05-13T08:04:08;13.53;;;11.47;;
11135;SDS011;5622;50.840;4.948;2023-05-13T08:06:48;13.97;;;11.93;;
11135;SDS011;5622;50.840;4.948;2023-05-13T08:09:18;13.53;;;11.30;;
11135;SDS011;5622;50.840;4.948;2023-05-13T08:11:51;13.60;;;11.00;;
11135;SDS011;5622;50.840;4.948;2023-05-13T08:14:20;12.83;;;10.90;;
11135;SDS011;5622;50.840;4.948;2023-05-13T08:16:51;14.00;;;10.87;;
11135;SDS011;5622;50.840;4.948;2023-05-13T08:19:21;13.30;;;11.90;;
11135;SDS011;5622;50.840;4.948;2023-05-13T08:21:49;11.97;;;10.70;;
11135;SDS011;5622;50.840;4.948;2023-05-13T08:24:17;12.43;;;11.20;;
11135;SDS011;5622;50.840;4.948;2023-05-13T08:26:44;11.80;;;10.30;;
11135;SDS011;5622;50.840;4.948;2023-05-13T08:29:12;16.30;;;10.70;;
11135;SDS011;5622;50.840;4.948;2023-05-13T08:31:39;11.63;;;10.43;;
11135;SDS011;5622;50.840;4.948;2023-05-13T08:34:07;11.10;;;10.00;;
11135;SDS011;5622;50.840;4.948;2023-05-13T08:36:36;10.60;;;9.50;;
11135;SDS011;5622;50.840;4.948;2023-05-13T08:39:06;11.53;;;10.27;;
11135;SDS011;5622;50.840;4.948;2023-05-13T08:41:33;9.30;;;8.40;;
11135;SDS011;5622;50.840;4.948;2023-05-13T08:44:04;11.13;;;9.83;;
11135;SDS011;5622;50.840;4.948;2023-05-13T08:46:34;13.57;;;9.53;;
11135;SDS011;5622;50.840;4.948;2023-05-13T08:49:04;10.77;;;9.03;;
11135;SDS011;5622;50.840;4.948;2023-05-13T08:51:33;10.17;;;9.17;;
11135;SDS011;5622;50.840;4.948;2023-05-13T08:54:02;13.53;;;9.00;;
11135;SDS011;5622;50.840;4.948;2023-05-13T08:56:30;10.27;;;9.27;;
11135;SDS011;5622;50.840;4.948;2023-05-13T08:58:59;15.70;;;9.40;;
11135;SDS011;5622;50.840;4.948;2023-05-13T09:01:26;10.30;;;8.97;;
11135;SDS011;5622;50.840;4.948;2023-05-13T09:03:57;12.47;;;8.60;;
11135;SDS011;5622;50.840;4.948;2023-05-13T09:06:26;12.10;;;9.00;;
11135;SDS011;5622;50.840;4.948;2023-05-13T09:08:54;13.57;;;8.10;;
11135;SDS011;5622;50.840;4.948;2023-05-13T09:11:22;10.60;;;8.43;;
11135;SDS011;5622;50.840;4.948;2023-05-13T09:14:01;10.47;;;8.17;;
11135;SDS011;5622;50.840;4.948;2023-05-13T09:16:31;9.63;;;8.73;;
11135;SDS011;5622;50.840;4.948;2023-05-13T09:19:01;9.13;;;8.30;;
11135;SDS011;5622;50.840;4.948;2023-05-13T09:21:30;11.07;;;8.33;;
11135;SDS011;5622;50.840;4.948;2023-05-13T09:24:06;10.00;;;7.77;;
11135;SDS011;5622;50.840;4.948;2023-05-13T09:26:38;10.33;;;7.70;;
11135;SDS011;5622;50.840;4.948;2023-05-13T09:29:14;10.43;;;8.00;;
11135;SDS011;5622;50.840;4.948;2023-05-13T09:31:42;7.80;;;7.10;;
11135;SDS011;5622;50.840;4.948;2023-05-13T09:34:09;11.13;;;7.10;;
11135;SDS011;5622;50.840;4.948;2023-05-13T09:36:37;9.93;;;7.03;;
11135;SDS011;5622;50.840;4.948;2023-05-13T09:39:04;9.13;;;7.07;;
11135;SDS011;5622;50.840;4.948;2023-05-13T09:41:31;7.30;;;6.60;;
11135;SDS011;5622;50.840;4.948;2023-05-13T09:44:02;9.43;;;6.57;;
11135;SDS011;5622;50.840;4.948;2023-05-13T09:46:29;11.53;;;7.63;;
11135;SDS011;5622;50.840;4.948;2023-05-13T09:48:58;10.87;;;7.27;;
11135;SDS011;5622;50.840;4.948;2023-05-13T09:51:26;9.93;;;7.27;;
11135;SDS011;5622;50.840;4.948;2023-05-13T09:53:54;7.33;;;6.47;;
11135;SDS011;5622;50.840;4.948;2023-05-13T09:56:29;9.73;;;6.63;;
11135;SDS011;5622;50.840;4.948;2023-05-13T09:58:57;8.17;;;6.40;;
11135;SDS011;5622;50.840;4.948;2023-05-13T10:01:26;11.83;;;6.93;;
11135;SDS011;5622;50.840;4.948;2023-05-13T10:03:54;7.70;;;6.20;;
11135;SDS011;5622;50.840;4.948;2023-05-13T10:06:24;7.97;;;6.53;;
11135;SDS011;5622;50.840;4.948;2023-05-13T10:08:52;9.33;;;6.43;;
11135;SDS011;5622;50.840;4.948;2023-05-13T10:11:22;9.50;;;6.47;;
11135;SDS011;5622;50.840;4.948;2023-05-13T10:13:54;10.27;;;7.03;;
11135;SDS011;5622;50.840;4.948;2023-05-13T10:16:27;8.63;;;7.03;;
11135;SDS011;5622;50.840;4.948;2023-05-13T10:18:56;6.87;;;5.97;;
11135;SDS011;5622;50.840;4.948;2023-05-13T10:21:24;10.20;;;6.47;;
11135;SDS011;5622;50.840;4.948;2023-05-13T10:23:51;7.90;;;6.13;;
11135;SDS011;5622;50.840;4.948;2023-05-13T10:26:19;8.03;;;5.97;;
11135;SDS011;5622;50.840;4.948;2023-05-13T10:28:46;10.33;;;5.97;;
11135;SDS011;5622;50.840;4.948;2023-05-13T10:31:14;10.97;;;6.77;;
11135;SDS011;5622;50.840;4.948;2023-05-13T10:33:43;9.10;;;6.43;;
11135;SDS011;5622;50.840;4.948;2023-05-13T10:36:15;7.40;;;5.57;;
11135;SDS011;5622;50.840;4.948;2023-05-13T10:39:02;8.40;;;6.53;;
11135;SDS011;5622;50.840;4.948;2023-05-13T10:42:04;10.87;;;6.70;;
11135;SDS011;5622;50.840;4.948;2023-05-13T10:44:46;8.93;;;6.37;;
11135;SDS011;5622;50.840;4.948;2023-05-13T10:47:19;7.97;;;6.87;;
11135;SDS011;5622;50.840;4.948;2023-05-13T10:49:50;10.77;;;6.57;;
11135;SDS011;5622;50.840;4.948;2023-05-13T10:52:18;11.37;;;6.47;;
11135;SDS011;5622;50.840;4.948;2023-05-13T10:54:57;9.57;;;6.10;;
11135;SDS011;5622;50.840;4.948;2023-05-13T10:57:26;6.57;;;5.90;;
11135;SDS011;5622;50.840;4.948;2023-05-13T11:00:13;12.70;;;6.53;;
11135;SDS011;5622;50.840;4.948;2023-05-13T11:02:42;6.57;;;5.50;;
11135;SDS011;5622;50.840;4.948;2023-05-13T11:05:14;8.77;;;5.73;;
11135;SDS011;5622;50.840;4.948;2023-05-13T11:07:53;9.13;;;5.57;;
11135;SDS011;5622;50.840;4.948;2023-05-13T11:10:24;5.93;;;5.23;;
11135;SDS011;5622;50.840;4.948;2023-05-13T11:13:06;8.47;;;5.43;;
11135;SDS011;5622;50.840;4.948;2023-05-13T11:15:43;8.83;;;5.43;;
11135;SDS011;5622;50.840;4.948;2023-05-13T11:18:11;7.33;;;5.20;;
11135;SDS011;5622;50.840;4.948;2023-05-13T11:20:40;8.60;;;5.63;;
11135;SDS011;5622;50.840;4.948;2023-05-13T11:23:15;8.07;;;5.83;;
11135;SDS011;5622;50.840;4.948;2023-05-13T11:25:43;6.00;;;5.40;;
11135;SDS011;5622;50.840;4.948;2023-05-13T11:28:13;9.33;;;5.00;;
11135;SDS011;5622;50.840;4.948;2023-05-13T11:30:51;15.87;;;4.83;;
11135;SDS011;5622;50.840;4.948;2023-05-13T11:33:20;10.43;;;4.57;;
11135;SDS011;5622;50.840;4.948;2023-05-13T11:35:53;6.67;;;4.90;;
11135;SDS011;5622;50.840;4.948;2023-05-13T11:38:21;8.63;;;4.43;;
11135;SDS011;5622;50.840;4.948;2023-05-13T11:40:50;6.03;;;4.50;;
11135;SDS011;5622;50.840;4.948;2023-05-13T11:43:20;6.17;;;4.40;;
11135;SDS011;5622;50.840;4.948;2023-05-13T11:45:49;7.90;;;4.57;;
11135;SDS011;5622;50.840;4.948;2023-05-13T11:48:18;7.57;;;4.40;;
11135;SDS011;5622;50.840;4.948;2023-05-13T11:50:46;5.33;;;4.00;;
11135;SDS011;5622;50.840;4.948;2023-05-13T11:53:19;6.50;;;4.53;;
11135;SDS011;5622;50.840;4.948;2023-05-13T11:55:47;6.33;;;4.53;;
11135;SDS011;5622;50.840;4.948;2023-05-13T11:58:15;5.40;;;4.47;;
11135;SDS011;5622;50.840;4.948;2023-05-13T12:00:43;5.57;;;4.50;;
11135;SDS011;5622;50.840;4.948;2023-05-13T12:03:10;7.10;;;4.57;;
11135;SDS011;5622;50.840;4.948;2023-05-13T12:05:40;7.27;;;4.60;;
11135;SDS011;5622;50.840;4.948;2023-05-13T12:08:08;7.17;;;4.80;;
11135;SDS011;5622;50.840;4.948;2023-05-13T12:10:42;8.23;;;4.57;;
11135;SDS011;5622;50.840;4.948;2023-05-13T12:13:09;5.70;;;4.80;;
11135;SDS011;5622;50.840;4.948;2023-05-13T12:15:37;6.53;;;4.40;;
11135;SDS011;5622;50.840;4.948;2023-05-13T12:18:04;5.13;;;4.73;;
11135;SDS011;5622;50.840;4.948;2023-05-13T12:20:32;6.13;;;4.73;;
11135;SDS011;5622;50.840;4.948;2023-05-13T12:22:59;4.83;;;4.43;;
11135;SDS011;5622;50.840;4.948;2023-05-13T12:25:34;7.07;;;4.30;;
11135;SDS011;5622;50.840;4.948;2023-05-13T12:28:08;5.67;;;4.43;;
11135;SDS011;5622;50.840;4.948;2023-05-13T12:30:37;6.27;;;4.30;;
11135;SDS011;5622;50.840;4.948;2023-05-13T12:33:11;6.40;;;5.20;;
11135;SDS011;5622;50.840;4.948;2023-05-13T12:35:39;6.10;;;4.70;;
11135;SDS011;5622;50.840;4.948;2023-05-13T12:38:07;8.30;;;4.90;;
11135;SDS011;5622;50.840;4.948;2023-05-13T12:40:39;5.83;;;4.40;;
11135;SDS011;5622;50.840;4.948;2023-05-13T12:43:08;7.70;;;4.57;;
11135;SDS011;5622;50.840;4.948;2023-05-13T12:45:39;6.73;;;4.27;;
11135;SDS011;5622;50.840;4.948;2023-05-13T12:48:07;5.13;;;4.60;;
11135;SDS011;5622;50.840;4.948;2023-05-13T12:50:35;7.13;;;4.83;;
11135;SDS011;5622;50.840;4.948;2023-05-13T12:53:02;12.37;;;5.07;;
11135;SDS011;5622;50.840;4.948;2023-05-13T12:55:30;6.63;;;4.90;;
11135;SDS011;5622;50.840;4.948;2023-05-13T12:57:58;6.57;;;4.27;;
11135;SDS011;5622;50.840;4.948;2023-05-13T13:00:28;6.93;;;4.10;;
11135;SDS011;5622;50.840;4.948;2023-05-13T13:02:56;6.83;;;4.40;;
11135;SDS011;5622;50.840;4.948;2023-05-13T13:05:25;5.63;;;3.90;;
11135;SDS011;5622;50.840;4.948;2023-05-13T13:07:52;5.10;;;4.60;;
11135;SDS011;5622;50.840;4.948;2023-05-13T13:10:20;8.97;;;4.70;;
11135;SDS011;5622;50.840;4.948;2023-05-13T13:12:47;7.47;;;4.43;;
11135;SDS011;5622;50.840;4.948;2023-05-13T13:15:15;7.03;;;4.70;;
11135;SDS011;5622;50.840;4.948;2023-05-13T13:17:44;10.07;;;4.50;;
11135;SDS011;5622;50.840;4.948;2023-05-13T13:20:11;4.60;;;4.20;;
11135;SDS011;5622;50.840;4.948;2023-05-13T13:22:39;5.07;;;4.20;;
11135;SDS011;5622;50.840;4.948;2023-05-13T13:25:07;7.83;;;4.23;;
11135;SDS011;5622;50.840;4.948;2023-05-13T13:27:35;5.57;;;4.33;;
11135;SDS011;5622;50.840;4.948;2023-05-13T13:30:05;6.93;;;4.60;;
11135;SDS011;5622;50.840;4.948;2023-05-13T13:32:34;5.77;;;4.17;;
11135;SDS011;5622;50.840;4.948;2023-05-13T13:35:08;5.10;;;4.10;;
11135;SDS011;5622;50.840;4.948;2023-05-13T13:37:38;7.10;;;4.50;;
11135;SDS011;5622;50.840;4.948;2023-05-13T13:40:11;8.83;;;4.20;;
11135;SDS011;5622;50.840;4.948;2023-05-13T13:42:45;4.90;;;4.40;;
11135;SDS011;5622;50.840;4.948;2023-05-13T13:45:13;4.43;;;4.03;;
11135;SDS011;5622;50.840;4.948;2023-05-13T13:47:43;4.47;;;4.00;;
11135;SDS011;5622;50.840;4.948;2023-05-13T13:50:14;5.57;;;4.93;;
11135;SDS011;5622;50.840;4.948;2023-05-13T13:52:49;4.67;;;4.27;;
11135;SDS011;5622;50.840;4.948;2023-05-13T13:55:20;5.20;;;4.30;;
11135;SDS011;5622;50.840;4.948;2023-05-13T13:57:52;6.10;;;4.03;;
11135;SDS011;5622;50.840;4.948;2023-05-13T14:00:26;5.53;;;4.17;;
11135;SDS011;5622;50.840;4.948;2023-05-13T14:02:54;7.07;;;4.23;;
11135;SDS011;5622;50.840;4.948;2023-05-13T14:05:24;8.27;;;4.23;;
11135;SDS011;5622;50.840;4.948;2023-05-13T14:07:54;5.43;;;4.07;;
11135;SDS011;5622;50.840;4.948;2023-05-13T14:10:22;6.93;;;4.10;;
11135;SDS011;5622;50.840;4.948;2023-05-13T14:12:52;6.00;;;4.10;;
11135;SDS011;5622;50.840;4.948;2023-05-13T14:15:23;5.73;;;3.80;;
11135;SDS011;5622;50.840;4.948;2023-05-13T14:17:57;6.37;;;4.73;;
11135;SDS011;5622;50.840;4.948;2023-05-13T14:20:29;4.60;;;4.20;;
11135;SDS011;5622;50.840;4.948;2023-05-13T14:22:58;6.70;;;4.30;;
11135;SDS011;5622;50.840;4.948;2023-05-13T14:25:26;5.73;;;3.93;;
11135;SDS011;5622;50.840;4.948;2023-05-13T14:27:57;4.83;;;4.00;;
11135;SDS011;5622;50.840;4.948;2023-05-13T14:30:29;4.53;;;4.13;;
11135;SDS011;5622;50.840;4.948;2023-05-13T14:33:02;5.03;;;4.53;;
11135;SDS011;5622;50.840;4.948;2023-05-13T14:35:35;5.07;;;4.03;;
11135;SDS011;5622;50.840;4.948;2023-05-13T14:38:09;11.23;;;4.30;;
11135;SDS011;5622;50.840;4.948;2023-05-13T14:40:52;6.23;;;4.17;;
11135;SDS011;5622;50.840;4.948;2023-05-13T14:43:29;4.40;;;3.80;;
11135;SDS011;5622;50.840;4.948;2023-05-13T14:46:02;6.73;;;4.27;;
11135;SDS011;5622;50.840;4.948;2023-05-13T14:48:39;4.33;;;3.83;;
11135;SDS011;5622;50.840;4.948;2023-05-13T14:51:17;6.83;;;4.07;;
11135;SDS011;5622;50.840;4.948;2023-05-13T14:53:46;7.37;;;4.60;;
11135;SDS011;5622;50.840;4.948;2023-05-13T14:56:22;4.13;;;3.80;;
11135;SDS011;5622;50.840;4.948;2023-05-13T14:58:58;6.43;;;4.03;;
11135;SDS011;5622;50.840;4.948;2023-05-13T15:01:43;5.07;;;3.80;;
11135;SDS011;5622;50.840;4.948;2023-05-13T15:04:16;4.67;;;4.03;;
11135;SDS011;5622;50.840;4.948;2023-05-13T15:09:48;4.87;;;4.03;;
11135;SDS011;5622;50.840;4.948;2023-05-13T15:12:26;6.07;;;4.07;;
11135;SDS011;5622;50.840;4.948;2023-05-13T15:15:16;4.93;;;4.13;;
11135;SDS011;5622;50.840;4.948;2023-05-13T15:18:21;4.30;;;3.60;;
11135;SDS011;5622;50.840;4.948;2023-05-13T15:20:57;5.60;;;4.23;;
11135;SDS011;5622;50.840;4.948;2023-05-13T15:34:04;6.37;;;4.30;;
